createdAt,value
2022-10-01T00:00:14.647Z,24.97
2022-10-01T00:02:41.838Z,22.57
2022-10-01T00:05:11.410Z,29.20
2022-10-01T00:07:39.415Z,27.80
2022-10-01T00:10:06.863Z,30.30
2022-10-01T00:12:34.227Z,30.53
2022-10-01T00:15:05.974Z,24.17
2022-10-01T00:17:34.445Z,27.30
2022-10-01T00:20:02.490Z,29.17
2022-10-01T00:22:32.346Z,26.57
2022-10-01T00:24:59.853Z,24.10
2022-10-01T00:27:27.750Z,24.07
2022-10-01T00:29:55.039Z,25.73
2022-10-01T00:32:22.637Z,27.10
2022-10-01T00:34:49.755Z,24.43
2022-10-01T00:37:18.107Z,27.50
2022-10-01T00:39:45.226Z,29.33
2022-10-01T00:42:18.122Z,25.67
2022-10-01T00:44:45.281Z,26.43
2022-10-01T00:47:29.179Z,28.13
2022-10-01T00:50:19.506Z,25.03
2022-10-01T00:52:48.589Z,27.03
2022-10-01T00:55:27.263Z,28.00
2022-10-01T00:57:55.160Z,30.63
2022-10-01T01:00:22.400Z,27.47
2022-10-01T01:02:50.678Z,28.00
2022-10-01T01:05:17.949Z,32.83
2022-10-01T01:07:49.167Z,29.03
2022-10-01T01:10:17.965Z,29.00
2022-10-01T01:12:48.335Z,32.90
2022-10-01T01:15:27.890Z,30.63
2022-10-01T01:18:10.822Z,30.80
2022-10-01T01:21:10.498Z,32.27
2022-10-01T01:23:56.102Z,32.73
2022-10-01T01:26:42.282Z,30.17
2022-10-01T01:29:14.769Z,29.93
2022-10-01T01:31:46.412Z,31.07
2022-10-01T01:34:15.681Z,35.07
2022-10-01T01:36:45.321Z,30.53
2022-10-01T01:39:14.342Z,30.30
2022-10-01T01:41:50.034Z,30.17
2022-10-01T01:44:19.112Z,29.87
2022-10-01T01:46:49.353Z,27.30
2022-10-01T01:49:17.725Z,31.93
2022-10-01T01:51:51.733Z,32.67
2022-10-01T01:54:19.543Z,31.53
2022-10-01T01:56:48.135Z,34.20
2022-10-01T01:59:16.315Z,34.73
2022-10-01T02:01:44.539Z,31.27
2022-10-01T02:04:13.072Z,34.03
2022-10-01T02:06:42.728Z,32.97
2022-10-01T02:09:15.139Z,33.83
2022-10-01T02:11:48.476Z,37.33
2022-10-01T02:14:28.615Z,35.00
2022-10-01T02:17:02.008Z,34.17
2022-10-01T02:19:34.584Z,32.10
2022-10-01T02:22:03.202Z,29.73
2022-10-01T02:24:48.607Z,29.93
2022-10-01T02:27:21.174Z,29.73
2022-10-01T02:29:50.341Z,35.13
2022-10-01T02:32:19.190Z,33.50
2022-10-01T02:34:48.219Z,34.77
2022-10-01T02:37:15.778Z,32.77
2022-10-01T02:39:43.358Z,32.33
2022-10-01T02:42:13.207Z,32.67
2022-10-01T02:44:42.540Z,31.47
2022-10-01T02:47:15.549Z,33.40
2022-10-01T02:49:42.669Z,33.67
2022-10-01T02:52:14.815Z,34.10
2022-10-01T02:54:47.995Z,33.07
2022-10-01T02:57:24.736Z,25.63
2022-10-01T02:59:52.276Z,27.97
2022-10-01T03:02:20.639Z,23.17
2022-10-01T03:04:48.545Z,22.23
2022-10-01T03:07:16.768Z,25.30
2022-10-01T03:09:43.865Z,21.70
2022-10-01T03:12:11.078Z,21.27
2022-10-01T03:14:41.859Z,22.97
2022-10-01T03:17:08.980Z,18.93
2022-10-01T03:19:36.061Z,15.73
2022-10-01T03:22:03.206Z,18.33
2022-10-01T03:24:30.426Z,17.93
2022-10-01T03:26:58.096Z,15.93
2022-10-01T03:29:25.669Z,16.60
2022-10-01T03:31:53.229Z,18.80
2022-10-01T03:34:20.653Z,16.67
2022-10-01T03:36:48.451Z,16.83
2022-10-01T03:39:15.672Z,15.90
2022-10-01T03:41:42.749Z,15.23
2022-10-01T03:44:09.859Z,15.73
2022-10-01T03:46:37.184Z,15.57
2022-10-01T03:49:04.356Z,17.87
2022-10-01T03:51:32.353Z,17.70
2022-10-01T03:53:59.962Z,15.67
2022-10-01T03:56:27.138Z,18.87
2022-10-01T03:58:54.496Z,13.83
2022-10-01T04:01:21.682Z,15.43
2022-10-01T04:03:50.339Z,15.97
2022-10-01T04:06:17.483Z,13.10
2022-10-01T04:08:44.814Z,16.27
2022-10-01T04:11:12.020Z,14.60
2022-10-01T04:13:39.100Z,17.10
2022-10-01T04:16:06.923Z,13.67
2022-10-01T04:18:34.360Z,16.10
2022-10-01T04:21:01.412Z,15.67
2022-10-01T04:23:28.573Z,13.67
2022-10-01T04:25:55.723Z,12.50
2022-10-01T04:28:22.864Z,13.17
2022-10-01T04:31:10.001Z,13.23
2022-10-01T04:33:37.210Z,12.60
2022-10-01T04:36:04.281Z,14.80
2022-10-01T04:38:31.372Z,14.93
2022-10-01T04:40:58.417Z,13.10
2022-10-01T04:43:25.543Z,10.80
2022-10-01T04:45:52.667Z,12.30
2022-10-01T04:48:19.806Z,12.47
2022-10-01T04:50:46.922Z,11.83
2022-10-01T04:53:14.017Z,11.30
2022-10-01T04:55:41.069Z,11.33
2022-10-01T04:58:08.106Z,12.63
2022-10-01T05:00:35.270Z,10.97
2022-10-01T05:03:02.393Z,12.20
2022-10-01T05:05:32.884Z,12.10
2022-10-01T05:07:59.966Z,10.43
2022-10-01T05:10:27.574Z,8.83
2022-10-01T05:12:54.734Z,8.87
2022-10-01T05:15:21.880Z,9.13
2022-10-01T05:17:48.979Z,9.87
2022-10-01T05:20:21.345Z,8.60
2022-10-01T05:22:49.493Z,10.47
2022-10-01T05:25:17.385Z,7.37
2022-10-01T05:27:44.553Z,9.93
2022-10-01T05:30:12.493Z,7.47
2022-10-01T05:32:39.736Z,7.97
2022-10-01T05:35:08.197Z,7.43
2022-10-01T05:37:35.581Z,8.17
2022-10-01T05:40:03.024Z,9.43
2022-10-01T05:42:30.082Z,6.60
2022-10-01T05:44:57.175Z,7.67
2022-10-01T05:47:24.279Z,6.60
2022-10-01T05:49:51.367Z,6.17
2022-10-01T05:52:18.463Z,6.80
2022-10-01T05:54:45.536Z,7.03
2022-10-01T05:57:13.036Z,8.37
2022-10-01T05:59:40.293Z,7.60
2022-10-01T06:02:09.566Z,8.87
2022-10-01T06:04:40.929Z,9.93
2022-10-01T06:07:08.798Z,7.00
2022-10-01T06:09:35.908Z,8.60
2022-10-01T06:12:03.037Z,7.27
2022-10-01T06:14:30.116Z,7.93
2022-10-01T06:16:57.253Z,6.47
2022-10-01T06:19:24.387Z,8.67
2022-10-01T06:21:52.222Z,8.63
2022-10-01T06:24:19.407Z,8.27
2022-10-01T06:26:48.468Z,8.37
2022-10-01T06:29:15.547Z,6.60
2022-10-01T06:31:42.964Z,11.20
2022-10-01T06:34:10.034Z,8.10
2022-10-01T06:36:37.093Z,9.47
2022-10-01T06:39:04.166Z,8.47
2022-10-01T06:41:31.474Z,10.33
2022-10-01T06:43:58.719Z,6.80
2022-10-01T06:46:25.894Z,6.40
2022-10-01T06:48:52.979Z,8.87
2022-10-01T06:51:40.028Z,7.80
2022-10-01T06:54:07.213Z,11.63
2022-10-01T06:56:35.688Z,7.37
2022-10-01T06:59:03.284Z,7.17
2022-10-01T07:01:32.702Z,9.17
2022-10-01T07:04:00.218Z,7.73
2022-10-01T07:06:27.281Z,9.03
2022-10-01T07:08:54.372Z,7.43
2022-10-01T07:11:21.476Z,9.20
2022-10-01T07:13:53.654Z,8.67
2022-10-01T07:16:21.568Z,8.67
2022-10-01T07:18:48.660Z,6.97
2022-10-01T07:21:15.702Z,10.43
2022-10-01T07:23:43.254Z,6.80
2022-10-01T07:26:10.824Z,9.97
2022-10-01T07:28:38.031Z,7.30
2022-10-01T07:31:12.691Z,8.37
2022-10-01T07:33:40.049Z,8.83
2022-10-01T07:36:08.437Z,8.20
2022-10-01T07:38:35.789Z,7.80
2022-10-01T07:41:03.475Z,8.97
2022-10-01T07:43:31.089Z,10.83
2022-10-01T07:46:00.073Z,10.37
2022-10-01T07:48:28.014Z,8.47
2022-10-01T07:50:55.129Z,10.83
2022-10-01T07:53:24.339Z,10.87
2022-10-01T07:55:52.041Z,7.90
2022-10-01T07:58:21.888Z,10.53
2022-10-01T08:00:48.962Z,8.20
2022-10-01T08:03:16.091Z,15.17
2022-10-01T08:05:43.606Z,8.43
2022-10-01T08:08:10.771Z,8.27
2022-10-01T08:10:38.629Z,11.13
2022-10-01T08:13:08.677Z,9.70
2022-10-01T08:15:36.403Z,9.53
2022-10-01T08:18:04.516Z,10.93
2022-10-01T08:20:32.026Z,12.30
2022-10-01T08:23:03.024Z,7.93
2022-10-01T08:25:30.132Z,7.30
2022-10-01T08:27:57.501Z,10.90
2022-10-01T08:30:25.452Z,8.43
2022-10-01T08:32:59.363Z,7.83
2022-10-01T08:35:27.008Z,7.33
2022-10-01T08:37:56.660Z,8.97
2022-10-01T08:40:24.691Z,8.73
2022-10-01T08:42:59.922Z,9.77
2022-10-01T08:45:29.702Z,9.40
2022-10-01T08:48:01.439Z,7.10
2022-10-01T08:50:47.487Z,8.67
2022-10-01T08:53:17.276Z,7.23
2022-10-01T08:55:44.944Z,6.50
2022-10-01T08:58:15.410Z,9.13
2022-10-01T09:00:45.222Z,6.90
2022-10-01T09:03:13.959Z,8.77
2022-10-01T09:05:48.272Z,10.53
2022-10-01T09:08:23.193Z,6.07
2022-10-01T09:10:58.931Z,7.97
2022-10-01T09:13:26.011Z,8.13
2022-10-01T09:16:11.644Z,6.73
2022-10-01T09:19:17.310Z,5.87
2022-10-01T09:21:44.389Z,5.97
2022-10-01T09:24:21.622Z,7.97
2022-10-01T09:26:49.208Z,6.87
2022-10-01T09:29:26.008Z,9.40
2022-10-01T09:31:54.479Z,7.70
2022-10-01T09:34:34.722Z,6.07
2022-10-01T09:37:06.412Z,5.47
2022-10-01T09:39:43.460Z,6.87
2022-10-01T09:42:10.633Z,6.10
2022-10-01T09:44:37.795Z,6.87
2022-10-01T09:47:14.529Z,6.87
2022-10-01T09:49:46.078Z,9.10
2022-10-01T09:52:16.196Z,6.20
2022-10-01T09:54:53.114Z,8.40
2022-10-01T09:57:25.597Z,8.03
2022-10-01T09:59:57.904Z,4.60
2022-10-01T10:02:32.147Z,6.27
2022-10-01T10:05:06.688Z,7.90
2022-10-01T10:07:35.131Z,6.73
2022-10-01T10:10:09.798Z,5.43
2022-10-01T10:12:37.008Z,4.73
2022-10-01T10:15:08.863Z,4.80
2022-10-01T10:17:37.910Z,5.00
2022-10-01T10:20:10.961Z,7.07
2022-10-01T10:22:38.548Z,6.13
2022-10-01T10:25:13.093Z,4.40
2022-10-01T10:27:51.388Z,4.43
2022-10-01T10:30:18.649Z,4.63
2022-10-01T10:32:48.822Z,5.03
2022-10-01T10:35:17.828Z,4.13
2022-10-01T10:37:50.360Z,4.10
2022-10-01T10:40:20.066Z,5.27
2022-10-01T10:42:56.994Z,4.13
2022-10-01T10:45:43.938Z,5.90
2022-10-01T10:48:16.559Z,3.93
2022-10-01T10:50:45.232Z,3.53
2022-10-01T10:53:22.388Z,4.80
2022-10-01T10:56:02.937Z,4.47
2022-10-01T10:58:34.208Z,5.03
2022-10-01T11:01:02.736Z,4.23
2022-10-01T11:03:33.036Z,4.83
2022-10-01T11:06:04.380Z,3.70
2022-10-01T11:08:32.149Z,4.97
2022-10-01T11:11:14.166Z,4.13
2022-10-01T11:13:41.212Z,4.17
2022-10-01T11:16:27.115Z,3.93
2022-10-01T11:19:09.319Z,4.07
2022-10-01T11:21:42.351Z,3.13
2022-10-01T11:24:33.203Z,4.27
2022-10-01T11:27:18.688Z,5.00
2022-10-01T11:29:48.758Z,4.07
2022-10-01T11:32:20.772Z,3.90
2022-10-01T11:34:53.530Z,3.30
2022-10-01T11:37:20.622Z,2.90
2022-10-01T11:39:49.324Z,4.07
2022-10-01T11:42:18.667Z,4.80
2022-10-01T11:44:45.709Z,3.03
2022-10-01T11:47:23.238Z,4.80
2022-10-01T11:50:05.740Z,3.13
2022-10-01T11:52:44.700Z,2.47
2022-10-01T11:55:39.851Z,2.93
2022-10-01T11:58:44.445Z,2.97
2022-10-01T12:01:14.379Z,2.70
2022-10-01T12:03:50.760Z,3.57
2022-10-01T12:06:23.150Z,1.93
2022-10-01T12:08:58.173Z,3.90
2022-10-01T12:11:29.235Z,4.37
2022-10-01T12:14:00.617Z,1.90
2022-10-01T12:16:34.067Z,3.23
2022-10-01T12:19:10.986Z,2.33
2022-10-01T12:21:40.361Z,4.43
2022-10-01T12:24:15.096Z,2.43
2022-10-01T12:26:45.215Z,5.57
2022-10-01T12:29:30.982Z,3.63
2022-10-01T12:32:30.636Z,2.90
2022-10-01T12:35:05.486Z,3.30
2022-10-01T12:37:51.414Z,2.97
2022-10-01T12:40:21.920Z,7.07
2022-10-01T12:42:55.118Z,2.90
2022-10-01T12:45:43.765Z,3.17
2022-10-01T12:48:16.357Z,4.27
2022-10-01T12:50:54.948Z,4.73
2022-10-01T12:53:25.148Z,7.20
2022-10-01T12:56:09.003Z,4.73
2022-10-01T12:58:39.228Z,18.97
2022-10-01T13:01:20.001Z,3.93
2022-10-01T13:04:07.394Z,5.07
2022-10-01T13:06:53.150Z,4.40
2022-10-01T13:09:46.563Z,2.70
2022-10-01T13:12:22.743Z,3.37
2022-10-01T13:14:52.715Z,3.13
2022-10-01T13:17:35.161Z,4.73
2022-10-01T13:20:07.470Z,3.90
2022-10-01T13:22:43.492Z,3.50
2022-10-01T13:25:10.533Z,6.13
2022-10-01T13:27:47.395Z,4.53
2022-10-01T13:30:18.357Z,3.63
2022-10-01T13:32:51.289Z,4.50
2022-10-01T13:35:24.391Z,3.97
2022-10-01T13:37:51.731Z,4.30
2022-10-01T13:40:32.492Z,4.80
2022-10-01T13:43:29.049Z,6.70
2022-10-01T13:45:56.845Z,12.67
2022-10-01T13:48:25.674Z,7.33
2022-10-01T13:51:10.629Z,11.07
2022-10-01T13:53:39.566Z,6.50
2022-10-01T13:56:06.954Z,21.33
2022-10-01T13:58:34.033Z,11.70
2022-10-01T14:01:02.731Z,15.23
2022-10-01T14:03:38.753Z,14.77
2022-10-01T14:06:07.850Z,5.10
2022-10-01T14:08:47.159Z,2.33
2022-10-01T14:11:37.369Z,5.73
2022-10-01T14:14:30.991Z,9.17
2022-10-01T14:16:59.109Z,4.40
2022-10-01T14:19:28.083Z,6.57
2022-10-01T14:21:55.148Z,3.47
2022-10-01T14:24:28.053Z,4.97
2022-10-01T14:27:18.404Z,5.93
2022-10-01T14:29:51.769Z,7.37
2022-10-01T14:32:22.977Z,5.47
2022-10-01T14:34:50.071Z,3.23
2022-10-01T14:37:18.945Z,11.47
2022-10-01T14:39:46.397Z,14.73
2022-10-01T14:42:17.612Z,9.87
2022-10-01T14:44:46.045Z,4.67
2022-10-01T14:47:13.147Z,2.50
2022-10-01T14:49:40.288Z,4.00
2022-10-01T14:52:14.173Z,6.23
2022-10-01T14:54:46.512Z,5.30
2022-10-01T14:57:17.648Z,5.47
2022-10-01T14:59:47.690Z,4.10
2022-10-01T15:02:19.663Z,9.50
2022-10-01T15:04:51.196Z,2.50
2022-10-01T15:07:18.868Z,3.17
2022-10-01T15:09:46.707Z,8.00
2022-10-01T15:12:15.252Z,3.07
2022-10-01T15:14:42.901Z,5.67
2022-10-01T15:17:16.600Z,2.83
2022-10-01T15:19:45.235Z,5.00
2022-10-01T15:22:13.039Z,4.23
2022-10-01T15:24:47.338Z,5.03
2022-10-01T15:27:15.300Z,5.53
2022-10-01T15:29:43.264Z,3.23
2022-10-01T15:32:12.681Z,4.40
2022-10-01T15:34:40.037Z,4.13
2022-10-01T15:37:07.297Z,5.60
2022-10-01T15:39:38.972Z,5.10
2022-10-01T15:42:32.766Z,4.40
2022-10-01T15:45:08.731Z,7.53
2022-10-01T15:47:39.641Z,4.00
2022-10-01T15:50:06.815Z,5.87
2022-10-01T15:52:51.755Z,5.50
2022-10-01T15:55:23.754Z,5.07
2022-10-01T15:57:52.790Z,3.77
2022-10-01T16:00:27.567Z,3.03
2022-10-01T16:02:55.233Z,5.33
2022-10-01T16:05:23.667Z,3.23
2022-10-01T16:07:54.488Z,4.23
2022-10-01T16:10:54.140Z,3.67
2022-10-01T16:13:30.291Z,5.43
2022-10-01T16:16:19.876Z,4.43
2022-10-01T16:19:00.735Z,4.97
2022-10-01T16:21:27.853Z,6.67
2022-10-01T16:23:56.043Z,4.37
2022-10-01T16:26:26.149Z,7.80
2022-10-01T16:29:16.305Z,3.73
2022-10-01T16:31:44.857Z,3.87
2022-10-01T16:34:16.049Z,7.67
2022-10-01T16:36:43.990Z,6.30
2022-10-01T16:39:15.442Z,8.00
2022-10-01T16:41:43.554Z,5.27
2022-10-01T16:44:12.989Z,7.30
2022-10-01T16:46:40.449Z,4.03
2022-10-01T16:49:12.096Z,5.33
2022-10-01T16:51:40.228Z,4.77
2022-10-01T16:54:13.516Z,6.80
2022-10-01T16:56:41.263Z,4.40
2022-10-01T16:59:08.386Z,4.37
2022-10-01T17:01:35.449Z,4.87
2022-10-01T17:04:02.547Z,9.07
2022-10-01T17:06:29.623Z,4.67
2022-10-01T17:08:56.835Z,10.40
2022-10-01T17:11:28.256Z,7.40
2022-10-01T17:13:55.364Z,8.43
2022-10-01T17:16:24.621Z,8.87
2022-10-01T17:18:51.949Z,9.67
2022-10-01T17:21:19.071Z,19.57
2022-10-01T17:23:49.946Z,7.20
2022-10-01T17:26:19.733Z,6.67
2022-10-01T17:28:47.066Z,4.73
2022-10-01T17:31:18.057Z,4.67
2022-10-01T17:33:45.849Z,4.50
2022-10-01T17:36:13.916Z,7.10
2022-10-01T17:38:41.089Z,8.47
2022-10-01T17:41:08.130Z,11.07
2022-10-01T17:43:36.821Z,9.77
2022-10-01T17:46:04.044Z,8.00
2022-10-01T17:48:31.219Z,22.13
2022-10-01T17:51:09.122Z,10.87
2022-10-01T17:53:42.165Z,20.67
2022-10-01T17:56:19.310Z,23.93
2022-10-01T17:58:46.493Z,6.30
2022-10-01T18:01:19.457Z,18.27
2022-10-01T18:03:46.631Z,14.50
2022-10-01T18:06:15.957Z,6.90
2022-10-01T18:08:58.430Z,8.43
2022-10-01T18:11:26.780Z,6.23
2022-10-01T18:13:53.932Z,9.70
2022-10-01T18:16:21.143Z,6.90
2022-10-01T18:21:36.471Z,9.30
2022-10-01T18:24:04.925Z,3.67
2022-10-01T18:26:32.658Z,6.83
2022-10-01T18:28:59.940Z,7.00
2022-10-01T18:31:28.168Z,4.70
2022-10-01T18:33:57.838Z,4.37
2022-10-01T18:36:36.079Z,4.37
2022-10-01T18:39:11.203Z,4.07
2022-10-01T18:41:39.205Z,4.20
2022-10-01T18:44:24.642Z,5.07
2022-10-01T18:46:51.697Z,5.53
2022-10-01T18:49:36.142Z,6.43
2022-10-01T18:52:19.368Z,3.93
2022-10-01T18:55:05.515Z,5.10
2022-10-01T18:57:41.861Z,10.63
2022-10-01T19:00:31.696Z,9.97
2022-10-01T19:03:17.363Z,5.80
2022-10-01T19:05:47.664Z,3.53
2022-10-01T19:08:14.753Z,4.80
2022-10-01T19:10:50.267Z,3.73
2022-10-01T19:13:20.488Z,5.53
2022-10-01T19:15:47.558Z,3.90
2022-10-01T19:18:33.487Z,7.30
2022-10-01T19:21:06.289Z,4.33
2022-10-01T19:23:45.436Z,5.53
2022-10-01T19:26:28.546Z,8.10
2022-10-01T19:29:03.764Z,6.73
2022-10-01T19:31:33.666Z,6.57
2022-10-01T19:34:13.410Z,4.13
2022-10-01T19:36:44.870Z,8.13
2022-10-01T19:39:16.707Z,4.17
2022-10-01T19:41:48.790Z,6.57
2022-10-01T19:44:28.629Z,11.13
2022-10-01T19:46:58.560Z,6.80
2022-10-01T19:49:44.828Z,9.03
2022-10-01T19:52:18.309Z,10.97
2022-10-01T19:55:03.608Z,8.20
2022-10-01T19:57:38.974Z,8.80
2022-10-01T20:00:10.184Z,11.00
2022-10-01T20:02:45.169Z,13.10
2022-10-01T20:05:15.610Z,11.07
2022-10-01T20:08:06.540Z,7.07
2022-10-01T20:10:38.620Z,10.03
2022-10-01T20:13:08.744Z,8.80
2022-10-01T20:15:43.165Z,9.53
2022-10-01T20:18:13.379Z,8.60
2022-10-01T20:20:40.483Z,9.03
2022-10-01T20:23:26.304Z,8.27
2022-10-01T20:26:04.801Z,8.00
2022-10-01T20:28:40.603Z,6.27
2022-10-01T20:31:19.877Z,7.37
2022-10-01T20:33:56.110Z,9.97
2022-10-01T20:36:26.072Z,10.33
2022-10-01T20:39:04.349Z,10.17
2022-10-01T20:41:34.693Z,12.33
2022-10-01T20:44:05.701Z,10.23
2022-10-01T20:46:38.215Z,11.77
2022-10-01T20:49:07.532Z,13.63
2022-10-01T20:51:46.080Z,11.20
2022-10-01T20:54:15.929Z,14.90
2022-10-01T20:56:46.316Z,18.30
2022-10-01T20:59:25.933Z,16.30
2022-10-01T21:02:01.146Z,10.60
2022-10-01T21:04:31.885Z,13.53
2022-10-01T21:07:02.198Z,17.47
2022-10-01T21:09:33.358Z,9.83
2022-10-01T21:12:11.074Z,13.43
2022-10-01T21:14:54.338Z,9.93
2022-10-01T21:17:21.479Z,15.13
2022-10-01T21:19:48.601Z,12.67
2022-10-01T21:22:24.777Z,11.27
2022-10-01T21:24:57.560Z,12.97
2022-10-01T21:27:27.679Z,15.20
2022-10-01T21:30:13.324Z,13.47
2022-10-01T21:32:50.433Z,14.17
2022-10-01T21:35:26.475Z,12.40
2022-10-01T21:38:08.745Z,13.67
2022-10-01T21:40:59.296Z,13.37
2022-10-01T21:43:29.154Z,13.10
2022-10-01T21:46:06.823Z,12.90
2022-10-01T21:48:36.745Z,15.53
2022-10-01T21:51:11.205Z,15.47
2022-10-01T21:53:38.279Z,15.97
2022-10-01T21:56:09.120Z,17.00
2022-10-01T21:58:48.852Z,10.47
2022-10-01T22:01:26.097Z,22.23
2022-10-01T22:04:03.793Z,19.13
2022-10-01T22:06:36.184Z,21.80
2022-10-01T22:09:03.542Z,12.13
2022-10-01T22:11:34.552Z,16.50
2022-10-01T22:14:11.990Z,13.27
2022-10-01T22:16:41.400Z,14.40
2022-10-01T22:19:13.597Z,16.13
2022-10-01T22:21:45.053Z,11.00
2022-10-01T22:24:16.816Z,13.93
2022-10-01T22:26:46.439Z,12.57
2022-10-01T22:29:17.175Z,13.33
2022-10-01T22:31:46.200Z,13.47
2022-10-01T22:34:15.573Z,13.93
2022-10-01T22:36:45.789Z,10.90
2022-10-01T22:39:23.908Z,11.07
2022-10-01T22:41:53.590Z,13.03
2022-10-01T22:44:21.822Z,13.47
2022-10-01T22:46:59.086Z,13.53
2022-10-01T22:49:33.000Z,12.43
2022-10-01T22:52:09.238Z,13.90
2022-10-01T22:54:49.276Z,13.13
2022-10-01T22:57:22.470Z,11.77
2022-10-01T22:59:59.913Z,11.80
2022-10-01T23:02:35.573Z,13.00
2022-10-01T23:05:03.146Z,15.93
2022-10-01T23:07:30.250Z,10.90
2022-10-01T23:10:00.208Z,14.17
2022-10-01T23:12:30.078Z,12.13
2022-10-01T23:15:01.505Z,14.57
2022-10-01T23:17:28.761Z,14.23
2022-10-01T23:19:55.879Z,13.50
2022-10-01T23:22:41.723Z,12.43
2022-10-01T23:25:08.812Z,13.03
2022-10-01T23:27:50.954Z,13.07
2022-10-01T23:30:19.481Z,14.03
2022-10-01T23:32:49.537Z,16.43
2022-10-01T23:35:20.519Z,15.87
2022-10-01T23:38:03.284Z,12.53
2022-10-01T23:40:35.242Z,16.07
2022-10-01T23:43:05.452Z,13.70
2022-10-01T23:45:39.412Z,17.23
2022-10-01T23:48:14.444Z,14.30
2022-10-01T23:50:52.582Z,14.53
2022-10-01T23:53:22.581Z,11.90
2022-10-01T23:56:28.249Z,16.10
2022-10-01T23:58:58.116Z,20.20
